Time;durP1;ratioP1;P1;durP2;ratioP2;P2;SDS_P1;SDS_P2;PMS_P1;PMS_P2;Temp;Humidity;BMP_temperature;BMP_pressure;BME280_temperature;BME280_humidity;BME280_pressure;Samples;Min_cycle;Max_cycle;Signal;HPM_P1;HPM_P2
2024/03/21 00:00:13;;;;;;;;;;;;;;;1.61;99.46;93490.66;5027042;28;19917;-74
2024/03/21 00:02:40;;;;;;;;;;;;;;;1.62;100.00;93489.72;5026163;28;19917;-73
2024/03/21 00:05:06;;;;;;;;;;;;;;;1.62;100.00;93483.88;5026690;28;20357;-73
2024/03/21 00:07:32;;;;;;;;;;;;;;;1.65;99.08;93481.84;5025645;28;19921;-74
2024/03/21 00:09:57;;;;;;;;;;;;;;;1.64;99.09;93481.97;5027804;28;20007;-73
2024/03/21 00:12:24;;;;;;;;;;;;;;;1.64;99.74;93476.91;5028773;28;19996;-73
2024/03/21 00:14:49;;;;;;;;;;;;;;;1.63;99.61;93475.31;5021846;28;19921;-73
2024/03/21 00:17:15;;;;;;;;;;;;;;;1.35;100.00;93483.84;5025276;28;19936;-74
2024/03/21 00:19:40;;;;;;;;;;;;;;;1.45;100.00;93483.75;5022031;28;19913;-73
2024/03/21 00:22:05;;;;;;;;;;;;;;;1.46;100.00;93472.69;5025861;28;19917;-74
2024/03/21 00:24:31;;;;;;;;;;;;;;;1.48;100.00;93480.91;5025597;28;19917;-73
2024/03/21 00:26:56;;;;;;;;;;;;;;;1.51;100.00;93473.03;5025387;28;19932;-74
2024/03/21 00:29:24;;;;;;;;;;;;;;;1.49;100.00;93472.41;5027198;28;19916;-74
2024/03/21 00:31:50;;;;;;;;;;;;;;;1.49;100.00;93472.41;5023825;28;20451;-74
2024/03/21 00:34:15;;;;;;;;;;;;;;;1.51;100.00;93470.50;5024573;28;19996;-74
2024/03/21 00:36:40;;;;;;;;;;;;;;;1.52;99.15;93464.50;5025967;28;19939;-74
2024/03/21 00:39:06;;;;;;;;;;;;;;;1.50;99.96;93466.38;5022120;28;19950;-74
2024/03/21 00:41:31;;;;;;;;;;;;;;;1.52;99.33;93464.50;5024274;28;20036;-74
2024/03/21 00:43:57;;;;;;;;;;;;;;;1.51;99.14;93462.09;5028077;28;19917;-74
2024/03/21 00:46:23;;;;;;;;;;;;;;;1.47;98.96;93461.59;5025087;28;19921;-74
2024/03/21 00:48:48;;;;;;;;;;;;;;;1.45;99.40;93455.91;5025880;28;19912;-74
2024/03/21 00:51:13;;;;;;;;;;;;;;;1.44;98.90;93456.84;5027627;28;20332;-75
2024/03/21 00:53:39;;;;;;;;;;;;;;;1.40;98.87;93458.88;5023094;28;20331;-74
2024/03/21 00:56:04;;;;;;;;;;;;;;;1.39;97.29;93459.81;5024531;28;19939;-74
2024/03/21 00:58:30;;;;;;;;;;;;;;;1.35;98.63;93465.31;5024351;28;20348;-74
2024/03/21 01:00:55;;;;;;;;;;;;;;;1.34;98.40;93459.44;5024435;28;19913;-74
2024/03/21 01:03:21;;;;;;;;;;;;;;;1.29;98.54;93456.59;5024357;28;19921;-74
2024/03/21 01:05:51;;;;;;;;;;;;;;;1.27;98.77;93455.91;5023969;28;20369;-74
2024/03/21 01:08:17;;;;;;;;;;;;;;;1.21;99.14;93454.78;5025490;28;19920;-74
2024/03/21 01:10:46;;;;;;;;;;;;;;;1.20;98.90;93451.44;5024994;28;20519;-75
2024/03/21 01:13:12;;;;;;;;;;;;;;;1.20;100.00;93448.91;5023984;28;19921;-74
2024/03/21 01:15:37;;;;;;;;;;;;;;;1.19;100.00;93447.34;5022944;28;19921;-75
2024/03/21 01:18:06;;;;;;;;;;;;;;;1.09;100.00;93448.34;5021572;28;20036;-75
2024/03/21 01:20:32;;;;;;;;;;;;;;;0.95;100.00;93445.38;5024855;28;19917;-75
2024/03/21 01:22:59;;;;;;;;;;;;;;;0.90;100.00;93445.03;5026172;28;20378;-74
2024/03/21 01:25:25;;;;;;;;;;;;;;;0.91;100.00;93452.47;5024189;28;19928;-75
2024/03/21 01:27:50;;;;;;;;;;;;;;;0.93;100.00;93444.75;5022970;28;19913;-75
2024/03/21 01:30:16;;;;;;;;;;;;;;;1.00;100.00;93450.00;5027064;28;19917;-75
2024/03/21 01:32:41;;;;;;;;;;;;;;;1.02;100.00;93445.63;5025312;28;20296;-75
2024/03/21 01:35:07;;;;;;;;;;;;;;;1.06;100.00;93445.16;5025948;28;19947;-75
2024/03/21 01:37:32;;;;;;;;;;;;;;;1.09;100.00;93440.75;5025628;28;20099;-75
2024/03/21 01:39:58;;;;;;;;;;;;;;;1.15;100.00;93447.78;5025729;28;19975;-75
2024/03/21 01:42:23;;;;;;;;;;;;;;;1.15;100.00;93437.66;5024982;28;19975;-75
2024/03/21 01:44:59;;;;;;;;;;;;;;;1.12;100.00;93443.00;5023268;28;20251;-75
2024/03/21 01:47:24;;;;;;;;;;;;;;;1.09;100.00;93448.34;5020618;28;20019;-75
2024/03/21 01:49:50;;;;;;;;;;;;;;;0.96;100.00;93443.66;5025142;28;20353;-75
2024/03/21 01:52:16;;;;;;;;;;;;;;;0.82;100.00;93440.69;5023819;28;20366;-75
2024/03/21 01:54:42;;;;;;;;;;;;;;;0.72;100.00;93437.41;5023463;28;19920;-74
2024/03/21 01:57:09;;;;;;;;;;;;;;;0.71;100.00;93429.06;5026293;28;20599;-74
2024/03/21 01:59:34;;;;;;;;;;;;;;;0.73;100.00;93439.00;5025918;28;19917;-74
2024/03/21 02:02:00;;;;;;;;;;;;;;;0.73;100.00;93437.28;5021050;28;20348;-74
2024/03/21 02:04:25;;;;;;;;;;;;;;;0.73;100.00;93432.22;5026913;28;20385;-74
2024/03/21 02:06:52;;;;;;;;;;;;;;;0.76;100.00;93429.44;5018823;28;19968;-74
2024/03/21 02:09:21;;;;;;;;;;;;;;;0.79;100.00;93433.41;5025465;28;19913;-74
2024/03/21 02:11:46;;;;;;;;;;;;;;;0.77;100.00;93430.19;5022169;28;19943;-74
2024/03/21 02:14:12;;;;;;;;;;;;;;;0.73;100.00;93429.69;5020783;28;20008;-74
2024/03/21 02:16:38;;;;;;;;;;;;;;;0.70;100.00;93427.47;5020990;28;19920;-75
2024/03/21 02:19:03;;;;;;;;;;;;;;;0.64;100.00;93426.31;5020596;28;19917;-75
2024/03/21 02:24:12;;;;;;;;;;;;;;;0.56;100.00;93431.28;5022768;28;19924;-75
2024/03/21 02:26:38;;;;;;;;;;;;;;;0.51;100.00;93426.66;5020378;28;20312;-75
2024/03/21 02:29:05;;;;;;;;;;;;;;;0.50;100.00;93427.59;5025514;28;20342;-74
2024/03/21 02:31:31;;;;;;;;;;;;;;;0.48;100.00;93431.19;5025511;28;20333;-74
2024/03/21 02:33:56;;;;;;;;;;;;;;;0.45;100.00;93431.47;5023548;28;19921;-74
2024/03/21 02:36:21;;;;;;;;;;;;;;;0.45;100.00;93423.88;5026245;28;19964;-74
2024/03/21 02:38:46;;;;;;;;;;;;;;;0.46;100.00;93428.03;5022386;28;20039;-75
2024/03/21 02:41:12;;;;;;;;;;;;;;;0.45;100.00;93422.16;5022271;28;20361;-74
2024/03/21 02:43:37;;;;;;;;;;;;;;;0.42;100.00;93422.47;5022100;28;19913;-74
2024/03/21 02:46:03;;;;;;;;;;;;;;;0.45;100.00;93419.63;5022746;28;19959;-74
2024/03/21 02:48:30;;;;;;;;;;;;;;;0.46;100.00;93423.75;5024656;28;19917;-74
2024/03/21 02:50:56;;;;;;;;;;;;;;;0.43;100.00;93419.00;5024550;28;19986;-74
2024/03/21 02:53:21;;;;;;;;;;;;;;;0.41;100.00;93418.31;5025660;28;19913;-73
2024/03/21 02:55:46;;;;;;;;;;;;;;;0.43;100.00;93413.13;5028617;28;20419;-75
2024/03/21 02:58:12;;;;;;;;;;;;;;;0.41;100.00;93410.75;5028793;28;19917;-76
2024/03/21 03:00:39;;;;;;;;;;;;;;;0.41;100.00;93415.00;5027519;28;20321;-75
2024/03/21 03:03:07;;;;;;;;;;;;;;;0.37;100.00;93419.56;5025070;28;19921;-75
2024/03/21 03:05:38;;;;;;;;;;;;;;;0.32;100.00;93414.13;5024484;28;19924;-75
2024/03/21 03:08:03;;;;;;;;;;;;;;;0.30;100.00;93421.84;5029006;28;19913;-75
2024/03/21 03:10:29;;;;;;;;;;;;;;;0.30;100.00;93426.09;5028168;28;20448;-75
2024/03/21 03:12:54;;;;;;;;;;;;;;;0.22;100.00;93416.69;5029424;28;20007;-74
2024/03/21 03:15:20;;;;;;;;;;;;;;;0.17;100.00;93414.59;5025937;28;19921;-75
2024/03/21 03:17:45;;;;;;;;;;;;;;;0.16;100.00;93412.22;5029547;28;20504;-74
2024/03/21 03:20:11;;;;;;;;;;;;;;;0.13;100.00;93416.63;5028581;28;19932;-74
2024/03/21 03:22:36;;;;;;;;;;;;;;;0.01;100.00;93420.25;5029156;28;19917;-74
2024/03/21 03:25:01;;;;;;;;;;;;;;;0.02;100.00;93418.53;5029644;28;19913;-74
2024/03/21 03:27:27;;;;;;;;;;;;;;;0.01;100.00;93417.75;5028811;28;19924;-74
2024/03/21 03:29:52;;;;;;;;;;;;;;;-0.01;100.00;93417.88;5027673;28;19917;-74
2024/03/21 03:32:18;;;;;;;;;;;;;;;0.01;100.00;93419.47;5027954;28;19913;-74
2024/03/21 03:37:27;;;;;;;;;;;;;;;-0.01;100.00;93427.97;5028944;28;20324;-74
2024/03/21 03:39:52;;;;;;;;;;;;;;;-0.01;100.00;93430.50;5027413;28;19917;-74
2024/03/21 03:42:20;;;;;;;;;;;;;;;-0.04;100.00;93438.34;5024610;28;19921;-74
2024/03/21 03:44:45;;;;;;;;;;;;;;;-0.03;100.00;93434.09;5024694;28;19924;-74
2024/03/21 03:47:10;;;;;;;;;;;;;;;-0.01;100.00;93432.22;5026272;28;19936;-73
2024/03/21 03:49:36;;;;;;;;;;;;;;;-0.01;100.00;93430.50;5018865;28;19943;-73
2024/03/21 03:52:01;;;;;;;;;;;;;;;0.01;100.00;93432.09;5026848;28;19917;-74
2024/03/21 03:54:27;;;;;;;;;;;;;;;-0.01;100.00;93434.75;5026890;28;20337;-74
2024/03/21 03:56:53;;;;;;;;;;;;;;;-0.02;100.00;93433.97;5027380;28;19913;-73
2024/03/21 03:59:18;;;;;;;;;;;;;;;-0.02;100.00;93440.72;5026575;28;19913;-73
2024/03/21 04:01:45;;;;;;;;;;;;;;;0.01;100.00;93444.72;5024829;28;20799;-74
2024/03/21 04:04:11;;;;;;;;;;;;;;;-0.05;100.00;93444.34;5027153;28;19921;-73
2024/03/21 04:06:36;;;;;;;;;;;;;;;-0.16;100.00;93447.84;5028369;28;19913;-73
2024/03/21 04:09:02;;;;;;;;;;;;;;;-0.20;100.00;93438.94;5026543;28;19921;-74
2024/03/21 04:11:27;;;;;;;;;;;;;;;-0.21;100.00;93449.97;5025414;28;19915;-74
2024/03/21 04:13:53;;;;;;;;;;;;;;;-0.23;100.00;93446.78;5021966;28;19995;-74
2024/03/21 04:16:18;;;;;;;;;;;;;;;-0.25;100.00;93446.13;5022113;28;20353;-74
2024/03/21 04:18:44;;;;;;;;;;;;;;;-0.27;100.00;93446.25;5023111;28;19951;-73
2024/03/21 04:21:10;;;;;;;;;;;;;;;-0.30;100.00;93440.69;5026809;28;20016;-74
2024/03/21 04:23:36;;;;;;;;;;;;;;;-0.30;100.00;93446.56;5024156;28;19999;-74
2024/03/21 04:26:01;;;;;;;;;;;;;;;-0.31;100.00;93446.69;5027892;28;20609;-74
2024/03/21 04:28:26;;;;;;;;;;;;;;;-0.27;100.00;93446.25;5023765;28;19992;-73
2024/03/21 04:30:52;;;;;;;;;;;;;;;-0.47;100.00;93415.22;5024818;28;20008;-73
2024/03/21 04:33:17;;;;;;;;;;;;;;;-0.27;100.00;93443.72;5024248;28;19921;-73
2024/03/21 04:35:42;;;;;;;;;;;;;;;-0.26;100.00;93447.06;5024358;28;19913;-73
2024/03/21 04:38:09;;;;;;;;;;;;;;;-0.31;100.00;93447.50;5026540;28;20305;-73
2024/03/21 04:40:34;;;;;;;;;;;;;;;-0.30;100.00;93445.75;5022752;28;19917;-73
2024/03/21 04:43:00;;;;;;;;;;;;;;;-0.29;100.00;93442.28;5024489;28;19982;-74
2024/03/21 04:45:25;;;;;;;;;;;;;;;-0.31;100.00;93439.91;5026183;28;20311;-74
2024/03/21 04:47:59;;;;;;;;;;;;;;;-0.27;100.00;93445.47;5025851;28;19924;-74
2024/03/21 04:50:25;;;;;;;;;;;;;;;-0.29;100.00;93447.31;5021665;28;20396;-73
2024/03/21 04:55:58;;;;;;;;;;;;;;;-0.33;100.00;93446.03;5025097;28;19927;-74
2024/03/21 04:58:24;;;;;;;;;;;;;;;-0.25;100.00;93450.38;5034509;28;19908;-74
2024/03/21 05:00:49;;;;;;;;;;;;;;;-0.19;100.00;93448.09;5042815;28;19928;-73
2024/03/21 05:03:14;;;;;;;;;;;;;;;-0.11;100.00;93449.13;5037835;28;19920;-73
2024/03/21 05:05:40;;;;;;;;;;;;;;;-0.03;100.00;93447.53;5039356;28;20329;-73
2024/03/21 05:08:06;;;;;;;;;;;;;;;0.03;100.00;93451.22;5040738;28;19921;-74
2024/03/21 05:10:34;;;;;;;;;;;;;;;0.17;100.00;93451.69;5043153;28;20055;-74
2024/03/21 05:12:59;;;;;;;;;;;;;;;0.29;100.00;93448.06;5032115;28;19917;-74
2024/03/21 05:15:24;;;;;;;;;;;;;;;0.35;100.00;93447.50;5037605;28;20292;-74
2024/03/21 05:17:49;;;;;;;;;;;;;;;0.43;100.00;93435.88;5040658;28;19917;-73
2024/03/21 05:20:16;;;;;;;;;;;;;;;0.52;100.00;93440.09;5036264;28;19921;-73
2024/03/21 05:22:41;;;;;;;;;;;;;;;0.58;100.00;93437.00;5033425;28;20003;-73
2024/03/21 05:25:07;;;;;;;;;;;;;;;0.73;100.00;93444.06;5035818;28;20621;-73
2024/03/21 05:27:32;;;;;;;;;;;;;;;0.85;100.00;93442.13;5037711;28;19917;-73
2024/03/21 05:29:58;;;;;;;;;;;;;;;1.00;100.00;93443.22;5037757;28;19938;-73
2024/03/21 05:32:23;;;;;;;;;;;;;;;1.09;100.00;93439.03;5046235;28;19923;-73
2024/03/21 05:34:48;;;;;;;;;;;;;;;1.16;100.00;93437.50;5041995;28;19967;-73
2024/03/21 05:37:13;;;;;;;;;;;;;;;1.26;100.00;93432.38;5039014;28;19916;-73
2024/03/21 05:39:39;;;;;;;;;;;;;;;1.32;100.00;93429.25;5029736;28;20408;-73
2024/03/21 05:42:04;;;;;;;;;;;;;;;1.39;100.00;93428.66;5044082;28;19916;-73
2024/03/21 05:44:29;;;;;;;;;;;;;;;1.47;100.00;93431.22;5043392;28;20880;-73
2024/03/21 05:46:55;;;;;;;;;;;;;;;1.54;100.00;93431.44;5035267;28;20055;-73
2024/03/21 05:49:20;;;;;;;;;;;;;;;1.59;100.00;93427.50;5037890;28;20403;-73
2024/03/21 05:51:48;;;;;;;;;;;;;;;1.70;100.00;93433.25;5039924;28;19916;-73
2024/03/21 05:54:13;;;;;;;;;;;;;;;1.85;100.00;93425.94;5041701;28;20369;-73
2024/03/21 05:56:39;;;;;;;;;;;;;;;1.99;100.00;93425.34;5039498;28;19912;-73
2024/03/21 05:59:04;;;;;;;;;;;;;;;2.12;100.00;93424.94;5041502;28;19913;-73
2024/03/21 06:01:32;;;;;;;;;;;;;;;2.33;100.00;93435.63;5041818;28;19913;-74
2024/03/21 06:03:58;;;;;;;;;;;;;;;2.49;98.84;93429.78;5042478;28;19996;-74
2024/03/21 06:06:24;;;;;;;;;;;;;;;2.33;98.09;93431.34;5032808;28;19920;-74
2024/03/21 06:08:49;;;;;;;;;;;;;;;2.54;99.25;93435.19;5034846;28;20392;-74
2024/03/21 06:11:14;;;;;;;;;;;;;;;2.80;99.30;93432.59;5045377;28;20280;-74
2024/03/21 06:13:40;;;;;;;;;;;;;;;3.01;98.63;93430.53;5040706;28;19963;-75
2024/03/21 06:16:05;;;;;;;;;;;;;;;3.15;98.48;93431.66;5041909;28;20416;-75
2024/03/21 06:18:31;;;;;;;;;;;;;;;3.39;98.05;93425.78;5038610;28;19989;-76
2024/03/21 06:20:56;;;;;;;;;;;;;;;3.61;96.21;93426.06;5039168;28;20327;-75
2024/03/21 06:23:22;;;;;;;;;;;;;;;3.74;92.57;93430.66;5039215;28;19944;-75
2024/03/21 06:25:47;;;;;;;;;;;;;;;3.97;91.92;93427.41;5039145;28;20004;-76
2024/03/21 06:28:13;;;;;;;;;;;;;;;4.04;91.94;93425.03;5044083;28;19921;-75
2024/03/21 06:30:38;;;;;;;;;;;;;;;3.86;94.06;93426.03;5043048;28;19963;-75
2024/03/21 06:33:04;;;;;;;;;;;;;;;3.89;94.24;93430.78;5048062;28;19917;-75
2024/03/21 06:35:29;;;;;;;;;;;;;;;4.04;93.57;93430.91;5036310;28;19925;-76
2024/03/21 06:37:56;;;;;;;;;;;;;;;3.98;92.42;93426.47;5037796;28;19959;-76
2024/03/21 06:40:22;;;;;;;;;;;;;;;3.94;92.61;93427.75;5041510;28;19916;-75
2024/03/21 06:42:50;;;;;;;;;;;;;;;4.17;91.36;93425.28;5041174;28;19920;-75
2024/03/21 06:45:16;;;;;;;;;;;;;;;4.40;90.18;93429.66;5048406;28;19996;-75
2024/03/21 06:47:42;;;;;;;;;;;;;;;4.26;90.98;93426.84;5041555;28;19914;-74
2024/03/21 06:50:11;;;;;;;;;;;;;;;4.00;89.09;93429.66;5037298;28;20759;-75
2024/03/21 06:52:37;;;;;;;;;;;;;;;4.08;90.46;93428.81;5042105;28;19920;-75
2024/03/21 06:55:03;;;;;;;;;;;;;;;4.44;90.05;93432.66;5039840;28;19919;-75
2024/03/21 06:57:28;;;;;;;;;;;;;;;4.63;86.97;93427.16;5044507;28;19916;-75
2024/03/21 06:59:53;;;;;;;;;;;;;;;4.59;87.08;93435.28;5048115;28;19944;-75
2024/03/21 07:02:19;;;;;;;;;;;;;;;4.69;88.98;93425.69;5040430;28;20041;-75
2024/03/21 07:04:44;;;;;;;;;;;;;;;5.02;86.83;93429.78;5043520;28;20450;-75
2024/03/21 07:07:09;;;;;;;;;;;;;;;5.28;86.06;93429.44;5041697;28;19968;-75
2024/03/21 07:09:35;;;;;;;;;;;;;;;5.58;86.69;93411.69;5041951;28;20261;-75
2024/03/21 07:12:00;;;;;;;;;;;;;;;5.97;88.18;93412.41;5042429;28;19923;-75
2024/03/21 07:14:34;;;;;;;;;;;;;;;6.59;85.88;93416.50;5041466;28;20482;-75
2024/03/21 07:17:00;;;;;;;;;;;;;;;6.97;83.54;93411.19;5040460;28;20369;-75
2024/03/21 07:19:33;;;;;;;;;;;;;;;7.40;83.83;93418.03;5042648;28;19927;-75
2024/03/21 07:21:58;;;;;;;;;;;;;;;7.97;77.62;93414.72;5041512;28;19965;-75
2024/03/21 07:24:24;;;;;;;;;;;;;;;8.39;72.78;93419.84;5040987;28;20397;-75
2024/03/21 07:26:49;;;;;;;;;;;;;;;8.47;69.77;93421.44;5041294;28;20331;-75
2024/03/21 07:29:14;;;;;;;;;;;;;;;8.77;66.98;93427.09;5040964;28;20007;-75
2024/03/21 07:31:40;;;;;;;;;;;;;;;9.03;63.13;93430.69;5042041;28;19917;-75
2024/03/21 07:34:06;;;;;;;;;;;;;;;9.20;58.56;93441.38;5040940;28;19972;-75
2024/03/21 07:36:31;;;;;;;;;;;;;;;8.69;59.03;93432.38;5043651;28;20547;-75
2024/03/21 07:38:56;;;;;;;;;;;;;;;8.75;60.71;93429.03;5041251;28;19949;-74
2024/03/21 07:41:22;;;;;;;;;;;;;;;9.27;63.44;93427.78;5041956;28;20007;-74
2024/03/21 07:43:48;;;;;;;;;;;;;;;9.35;56.84;93430.13;5040926;28;19917;-74
2024/03/21 07:46:17;;;;;;;;;;;;;;;9.53;57.90;93431.34;5040920;28;20055;-75
2024/03/21 07:48:43;;;;;;;;;;;;;;;9.27;56.93;93438.81;5039304;28;20516;-75
2024/03/21 07:51:08;;;;;;;;;;;;;;;8.86;58.26;93437.16;5039897;28;20586;-75
2024/03/21 07:53:33;;;;;;;;;;;;;;;9.16;57.84;93431.72;5041666;28;19917;-76
2024/03/21 07:55:59;;;;;;;;;;;;;;;9.03;57.67;93429.91;5041809;28;19916;-75
2024/03/21 07:58:24;;;;;;;;;;;;;;;9.31;62.09;93426.41;5042586;28;19916;-76
2024/03/21 08:00:49;;;;;;;;;;;;;;;8.90;62.15;93423.78;5042035;28;19959;-75
2024/03/21 08:03:15;;;;;;;;;;;;;;;9.46;62.68;93423.66;5041824;28;20315;-75
2024/03/21 08:05:40;;;;;;;;;;;;;;;9.38;58.06;93421.25;5046032;28;19978;-75
2024/03/21 08:08:05;;;;;;;;;;;;;;;9.35;56.92;93430.13;5042510;28;19960;-75
2024/03/21 08:10:30;;;;;;;;;;;;;;;9.49;57.42;93421.47;5036815;28;19971;-75
2024/03/21 08:12:56;;;;;;;;;;;;;;;9.19;56.74;93434.66;5037750;28;20003;-74
2024/03/21 08:15:21;;;;;;;;;;;;;;;9.43;57.21;93426.59;5043359;28;19921;-75
2024/03/21 08:17:46;;;;;;;;;;;;;;;8.76;56.50;93428.09;5045007;28;19920;-75
2024/03/21 08:20:12;;;;;;;;;;;;;;;9.14;56.64;93429.34;5035834;28;19951;-75
2024/03/21 08:22:37;;;;;;;;;;;;;;;8.92;55.68;93426.94;5040457;28;20317;-75
2024/03/21 08:25:03;;;;;;;;;;;;;;;9.13;56.11;93426.97;5038648;28;19924;-75
2024/03/21 08:27:29;;;;;;;;;;;;;;;9.33;56.79;93424.41;5042110;28;20008;-74
2024/03/21 08:29:54;;;;;;;;;;;;;;;9.57;54.49;93425.63;5030459;28;20003;-74
2024/03/21 08:32:22;;;;;;;;;;;;;;;9.69;58.04;93413.00;5042213;28;20323;-75
2024/03/21 08:34:48;;;;;;;;;;;;;;;10.27;61.02;93396.09;5040938;28;19920;-74
2024/03/21 08:37:14;;;;;;;;;;;;;;;10.16;53.71;93410.34;5039738;28;19996;-75
2024/03/21 08:39:40;;;;;;;;;;;;;;;9.49;55.14;93407.84;5031221;28;19948;-75
2024/03/21 08:42:05;;;;;;;;;;;;;;;9.52;53.75;93409.22;5042475;28;19916;-74
2024/03/21 08:44:30;;;;;;;;;;;;;;;9.95;55.10;93400.31;5040414;28;19939;-75
2024/03/21 08:46:56;;;;;;;;;;;;;;;10.57;53.08;93402.53;5041821;28;19963;-75
2024/03/21 08:49:21;;;;;;;;;;;;;;;10.72;50.96;93398.88;5045442;28;19917;-75
2024/03/21 08:51:46;;;;;;;;;;;;;;;11.11;55.67;93391.16;5035405;28;20259;-75
2024/03/21 08:54:12;;;;;;;;;;;;;;;11.45;56.94;93391.72;5043766;28;20436;-75
2024/03/21 08:56:37;;;;;;;;;;;;;;;11.11;48.94;93402.22;5041658;28;20403;-75
2024/03/21 08:59:03;;;;;;;;;;;;;;;10.85;51.28;93396.25;5042690;28;19924;-75
2024/03/21 09:01:29;;;;;;;;;;;;;;;11.43;53.93;93388.56;5044969;28;19964;-75
2024/03/21 09:03:54;;;;;;;;;;;;;;;11.27;52.05;93395.81;5041631;28;20504;-75
2024/03/21 09:06:19;;;;;;;;;;;;;;;10.71;50.73;93398.13;5038775;28;19917;-75
2024/03/21 09:08:45;;;;;;;;;;;;;;;11.42;53.25;93385.19;5038085;28;19994;-75
2024/03/21 09:11:10;;;;;;;;;;;;;;;11.73;54.32;93373.28;5041407;28;19963;-75
2024/03/21 09:13:36;;;;;;;;;;;;;;;12.14;55.96;93373.66;5042161;28;19916;-75
2024/03/21 09:16:01;;;;;;;;;;;;;;;12.51;54.41;93377.22;5042669;28;19928;-75
2024/03/21 09:18:27;;;;;;;;;;;;;;;12.81;52.25;93377.25;5045569;28;19916;-75
2024/03/21 09:20:52;;;;;;;;;;;;;;;12.94;49.68;93383.22;5038169;28;19952;-75
2024/03/21 09:23:18;;;;;;;;;;;;;;;13.04;50.73;93383.47;5039035;28;19913;-75
2024/03/21 09:25:43;;;;;;;;;;;;;;;12.39;46.60;93377.97;5045644;28;19956;-75
2024/03/21 09:28:09;;;;;;;;;;;;;;;12.93;50.14;93377.28;5035090;28;19913;-74
2024/03/21 09:30:34;;;;;;;;;;;;;;;13.36;52.38;93369.50;5035672;28;20407;-75
2024/03/21 09:33:00;;;;;;;;;;;;;;;13.70;51.40;93363.84;5043743;28;20696;-75
2024/03/21 09:35:25;;;;;;;;;;;;;;;13.42;46.40;93378.16;5045212;28;19924;-75
2024/03/21 09:37:50;;;;;;;;;;;;;;;13.49;47.83;93373.72;5033143;28;19920;-74
2024/03/21 09:40:17;;;;;;;;;;;;;;;13.77;47.93;93361.94;5039537;28;19923;-74
2024/03/21 09:42:43;;;;;;;;;;;;;;;13.81;48.92;93365.63;5034965;28;20280;-74
2024/03/21 09:45:12;;;;;;;;;;;;;;;13.41;47.57;93374.78;5044083;28;19920;-74
2024/03/21 09:47:39;;;;;;;;;;;;;;;12.38;46.35;93378.97;5040190;28;20563;-74
2024/03/21 09:50:06;;;;;;;;;;;;;;;12.23;48.58;93356.13;5042310;28;19962;-74
2024/03/21 09:52:32;;;;;;;;;;;;;;;12.31;48.14;93365.34;5035324;28;20372;-74
2024/03/21 09:54:57;;;;;;;;;;;;;;;11.81;46.59;93358.53;5042024;28;19913;-74
2024/03/21 09:57:23;;;;;;;;;;;;;;;12.39;53.02;93346.25;5034331;28;19925;-74
2024/03/21 09:59:48;;;;;;;;;;;;;;;13.08;48.34;93345.94;5047972;28;19913;-75
2024/03/21 10:02:13;;;;;;;;;;;;;;;13.69;49.46;93337.25;5041149;28;19928;-75
2024/03/21 10:04:42;;;;;;;;;;;;;;;14.19;48.42;93334.34;5043349;28;19923;-75
2024/03/21 10:07:21;;;;;;;;;;;;;;;14.08;48.17;93335.97;5045751;28;19997;-75
2024/03/21 10:09:56;;;;;;;;;;;;;;;14.65;48.90;93324.09;5037701;28;20011;-74
2024/03/21 10:12:22;;;;;;;;;;;;;;;14.92;46.51;93329.50;5033651;28;19917;-76
2024/03/21 10:14:47;;;;;;;;;;;;;;;14.91;43.72;93333.09;5041238;28;19924;-75
2024/03/21 10:17:13;;;;;;;;;;;;;;;14.33;47.12;93324.53;5042782;28;19927;-74
2024/03/21 10:19:38;;;;;;;;;;;;;;;14.77;47.66;93311.91;5044852;28;20273;-75
2024/03/21 10:22:03;;;;;;;;;;;;;;;14.78;42.69;93323.03;5038470;28;19975;-75
2024/03/21 10:24:29;;;;;;;;;;;;;;;13.85;43.07;93324.66;5046365;28;19921;-75
2024/03/21 10:26:55;;;;;;;;;;;;;;;14.09;42.46;93316.84;5046307;28;20011;-75
2024/03/21 10:29:21;;;;;;;;;;;;;;;14.02;42.35;93317.78;5044291;28;20461;-75
2024/03/21 10:31:47;;;;;;;;;;;;;;;13.71;42.26;93318.94;5042021;28;19979;-75
2024/03/21 10:34:15;;;;;;;;;;;;;;;13.78;44.44;93321.41;5042847;28;20385;-76
2024/03/21 10:36:40;;;;;;;;;;;;;;;13.92;44.95;93298.72;5045239;28;19916;-76
2024/03/21 10:39:07;;;;;;;;;;;;;;;14.37;45.31;93303.19;5041289;28;19912;-76
2024/03/21 10:41:34;;;;;;;;;;;;;;;14.11;43.02;93299.31;5040933;28;19920;-76
2024/03/21 10:44:03;;;;;;;;;;;;;;;14.55;45.19;93294.44;5036899;28;19917;-77
2024/03/21 10:46:29;;;;;;;;;;;;;;;13.51;45.01;93293.50;5024644;28;19912;-76
2024/03/21 10:48:56;;;;;;;;;;;;;;;13.71;46.04;93286.16;5036268;28;19920;-76
2024/03/21 10:51:21;;;;;;;;;;;;;;;13.75;44.18;93289.88;5042412;28;20398;-76
2024/03/21 10:53:56;;;;;;;;;;;;;;;13.26;43.48;93287.50;5040832;28;19921;-75
2024/03/21 10:56:28;;;;;;;;;;;;;;;13.05;42.78;93294.00;5045019;28;19959;-77
2024/03/21 10:58:57;;;;;;;;;;;;;;;13.30;45.45;93275.75;5038832;28;19921;-77
2024/03/21 11:01:34;;;;;;;;;;;;;;;12.89;43.72;93282.53;5043967;28;20047;-77
2024/03/21 11:04:03;;;;;;;;;;;;;;;13.31;43.30;93271.34;5039314;28;20350;-77
2024/03/21 11:06:34;;;;;;;;;;;;;;;12.85;43.78;93273.66;5044903;28;19924;-75
2024/03/21 11:09:00;;;;;;;;;;;;;;;12.85;44.12;93271.09;5041963;28;20378;-76
2024/03/21 11:11:26;;;;;;;;;;;;;;;12.66;44.19;93261.66;5042444;28;19921;-76
2024/03/21 11:13:52;;;;;;;;;;;;;;;12.87;44.28;93262.13;5041203;28;19916;-76
2024/03/21 11:16:17;;;;;;;;;;;;;;;13.12;43.31;93255.19;5042564;28;20023;-76
2024/03/21 11:18:43;;;;;;;;;;;;;;;12.95;43.01;93258.44;5045853;28;19917;-76
2024/03/21 11:21:12;;;;;;;;;;;;;;;13.18;41.72;93247.38;5042142;28;19931;-77
2024/03/21 11:23:38;;;;;;;;;;;;;;;12.59;44.20;93242.91;5042963;28;19956;-76
2024/03/21 11:26:03;;;;;;;;;;;;;;;12.41;42.65;93241.22;5043807;28;20357;-76
2024/03/21 11:28:29;;;;;;;;;;;;;;;12.53;43.72;93239.44;5042728;28;20011;-77
2024/03/21 11:30:54;;;;;;;;;;;;;;;12.66;42.13;93245.41;5040774;28;19936;-76
2024/03/21 11:33:20;;;;;;;;;;;;;;;12.68;42.34;93238.22;5041602;28;19917;-76
2024/03/21 11:35:45;;;;;;;;;;;;;;;12.88;41.54;93234.56;5043199;28;20369;-77
2024/03/21 11:38:13;;;;;;;;;;;;;;;12.69;43.30;93232.09;5042176;28;20369;-76
2024/03/21 11:40:38;;;;;;;;;;;;;;;12.72;42.51;93221.31;5038737;28;19921;-76
2024/03/21 11:43:05;;;;;;;;;;;;;;;12.83;40.11;93217.19;5043394;28;19921;-76
2024/03/21 11:45:30;;;;;;;;;;;;;;;13.24;38.05;93217.28;5042033;28;19939;-76
2024/03/21 11:48:08;;;;;;;;;;;;;;;13.47;36.95;93210.59;5041856;28;19975;-77
2024/03/21 11:50:34;;;;;;;;;;;;;;;13.54;37.22;93200.91;5037806;28;19921;-76
2024/03/21 11:53:00;;;;;;;;;;;;;;;13.51;37.88;93198.78;5039999;28;20602;-76
2024/03/21 11:55:25;;;;;;;;;;;;;;;13.81;37.19;93187.50;5041533;28;19916;-76
2024/03/21 11:57:50;;;;;;;;;;;;;;;13.45;34.55;93191.91;5042392;28;20011;-76
2024/03/21 12:00:16;;;;;;;;;;;;;;;13.89;36.04;93181.19;5042745;28;19921;-76
2024/03/21 12:02:43;;;;;;;;;;;;;;;13.77;35.78;93181.22;5041244;28;20011;-76
2024/03/21 12:05:08;;;;;;;;;;;;;;;12.74;35.37;93182.44;5043008;28;19939;-76
2024/03/21 12:07:41;;;;;;;;;;;;;;;13.29;35.67;93186.44;5043238;28;19921;-76
2024/03/21 12:10:07;;;;;;;;;;;;;;;13.75;38.05;93175.50;5044418;28;20292;-76
2024/03/21 12:12:32;;;;;;;;;;;;;;;14.13;36.37;93173.31;5046347;28;19917;-76
2024/03/21 12:14:57;;;;;;;;;;;;;;;14.50;38.01;93165.16;5041774;28;20084;-76
2024/03/21 12:17:23;;;;;;;;;;;;;;;14.87;36.46;93169.09;5043523;28;19962;-76
2024/03/21 12:19:48;;;;;;;;;;;;;;;14.56;34.90;93161.63;5045213;28;20315;-76
2024/03/21 12:22:13;;;;;;;;;;;;;;;14.45;33.90;93159.09;5034128;28;19947;-75
2024/03/21 12:24:42;;;;;;;;;;;;;;;14.27;34.38;93168.66;5041714;28;19916;-76
2024/03/21 12:27:08;;;;;;;;;;;;;;;14.48;33.74;93166.41;5043395;28;19917;-76
2024/03/21 12:29:33;;;;;;;;;;;;;;;14.82;34.69;93158.66;5043652;28;19923;-76
2024/03/21 12:31:59;;;;;;;;;;;;;;;14.68;34.17;93153.78;5042422;28;19923;-76
2024/03/21 12:34:24;;;;;;;;;;;;;;;14.85;34.12;93153.00;5043428;28;19912;-76
2024/03/21 12:36:50;;;;;;;;;;;;;;;14.88;34.09;93143.97;5041756;28;19917;-76
2024/03/21 12:39:15;;;;;;;;;;;;;;;15.11;32.45;93140.41;5038757;28;20357;-76
2024/03/21 12:41:41;;;;;;;;;;;;;;;14.51;33.50;93132.31;5040358;28;19921;-75
2024/03/21 12:44:06;;;;;;;;;;;;;;;14.57;34.47;93134.75;5042213;28;19956;-76
2024/03/21 12:46:31;;;;;;;;;;;;;;;14.40;34.28;93141.72;5041461;28;20362;-76
2024/03/21 12:48:57;;;;;;;;;;;;;;;14.33;34.41;93123.78;5042588;28;19917;-76